Time;durP1;ratioP1;P1;durP2;ratioP2;P2;SDS_P1;SDS_P2;PMS_P1;PMS_P2;Temp;Humidity;BMP_temperature;BMP_pressure;BME280_temperature;BME280_humidity;BME280_pressure;Samples;Min_cycle;Max_cycle;Signal;HPM_P1;HPM_P2
2021/11/16 00:00:14;;;;;;;44.30;18.60;;;;;;;14.77;48.72;100760.69;5018121;28;20049;-60
2021/11/16 00:02:41;;;;;;;35.90;19.47;;;;;;;14.58;49.21;100771.91;5024918;28;20097;-58
2021/11/16 00:05:09;;;;;;;40.50;21.93;;;;;;;14.51;49.27;100779.03;5024422;28;20053;-59
2021/11/16 00:07:36;;;;;;;38.40;20.67;;;;;;;14.40;49.86;100779.13;5016280;28;20050;-60
2021/11/16 00:10:05;;;;;;;26.53;12.93;;;;;;;14.33;50.02;100769.41;5024486;28;20072;-60
2021/11/16 00:12:32;;;;;;;22.20;12.20;;;;;;;14.19;49.96;100772.09;5026909;28;20148;-58
2021/11/16 00:14:59;;;;;;;36.23;16.40;;;;;;;14.14;50.22;100773.00;5011864;28;20081;-62
2021/11/16 00:17:26;;;;;;;22.13;11.40;;;;;;;13.85;50.26;100730.13;5030981;28;20045;-64
2021/11/16 00:19:53;;;;;;;22.70;11.97;;;;;;;14.12;50.23;100780.03;5030885;28;20583;-63
2021/11/16 00:22:20;;;;;;;19.87;10.13;;;;;;;14.12;50.02;100768.78;5016579;28;20445;-63
2021/11/16 00:27:27;;;;;;;15.20;9.02;;;;;;;14.29;49.78;100780.41;5020325;28;20137;-64
2021/11/16 00:29:54;;;;;;;16.43;9.73;;;;;;;14.35;49.62;100775.53;5011213;28;20088;-65
2021/11/16 00:32:20;;;;;;;17.80;8.47;;;;;;;14.32;49.77;100767.72;5019016;28;20132;-67
2021/11/16 00:34:48;;;;;;;14.93;7.87;;;;;;;14.38;49.57;100774.94;5032735;28;20046;-66
2021/11/16 00:37:16;;;;;;;36.97;16.17;;;;;;;14.46;49.87;100780.75;5047130;28;20136;-64
2021/11/16 00:39:43;;;;;;;32.93;16.67;;;;;;;14.36;49.79;100775.25;5024949;28;20069;-66
2021/11/16 00:42:10;;;;;;;37.43;19.03;;;;;;;14.26;50.16;100781.00;5013667;28;20052;-65
2021/11/16 00:44:37;;;;;;;40.13;21.27;;;;;;;14.10;50.61;100771.09;5031311;28;20073;-64
2021/11/16 00:47:04;;;;;;;27.53;16.10;;;;;;;13.98;50.88;100765.88;5021285;28;20084;-62
2021/11/16 00:49:31;;;;;;;26.73;15.47;;;;;;;13.95;51.06;100775.75;5028302;28;20124;-63
2021/11/16 00:51:57;;;;;;;20.07;10.67;;;;;;;13.96;50.91;100766.19;5033175;28;20572;-61
2021/11/16 00:54:24;;;;;;;11.77;7.70;;;;;;;14.05;50.60;100768.31;5036356;28;20398;-62
2021/11/16 00:56:51;;;;;;;12.33;6.90;;;;;;;14.11;50.58;100764.31;5031038;28;20041;-62
2021/11/16 00:59:18;;;;;;;13.53;7.40;;;;;;;14.08;50.59;100764.91;5029647;28;20131;-64
2021/11/16 01:01:45;;;;;;;11.57;7.40;;;;;;;14.08;50.47;100756.50;5028539;28;20108;-63
2021/11/16 01:04:15;;;;;;;15.70;7.53;;;;;;;14.23;50.54;100759.13;5027332;28;20453;-61
2021/11/16 01:06:42;;;;;;;10.80;6.60;;;;;;;14.25;50.28;100756.00;5031112;28;20049;-59
2021/11/16 01:09:10;;;;;;;14.57;6.53;;;;;;;14.33;50.07;100764.63;5028154;28;20124;-61
2021/11/16 01:11:37;;;;;;;14.57;6.60;;;;;;;14.35;49.90;100765.13;5014985;28;20462;-61
2021/11/16 01:14:05;;;;;;;10.20;6.00;;;;;;;14.32;50.13;100762.94;5022258;28;20084;-59
2021/11/16 01:16:32;;;;;;;8.10;5.30;;;;;;;14.37;49.99;100751.63;5024510;28;20581;-61
2021/11/16 01:19:00;;;;;;;9.37;5.23;;;;;;;14.38;49.87;100756.09;5018378;28;20046;-62
2021/11/16 01:21:27;;;;;;;10.20;4.57;;;;;;;14.43;49.64;100756.06;5008694;28;20054;-63
2021/11/16 01:23:54;;;;;;;9.97;4.27;;;;;;;14.52;49.33;100755.41;5006819;28;20129;-62
2021/11/16 01:26:21;;;;;;;8.93;4.37;;;;;;;14.46;49.45;100747.03;5001620;28;20073;-62
2021/11/16 01:28:48;;;;;;;9.10;5.00;;;;;;;14.47;49.24;100747.84;5007802;28;20076;-62
2021/11/16 01:31:15;;;;;;;8.97;4.43;;;;;;;14.45;49.02;100753.75;4988417;28;20089;-61
2021/11/16 01:34:06;;;;;;;8.10;3.50;;;;;;;14.39;48.94;100735.31;4996562;28;20133;-63
2021/11/16 01:36:30;;;;;;;6.03;3.33;;;;;;;14.54;48.66;100744.72;5006860;28;20074;-60
2021/11/16 01:38:58;;;;;;;6.17;3.47;;;;;;;14.50;48.62;100726.75;5000185;28;20128;-58
2021/11/16 01:41:27;;;;;;;7.57;3.20;;;;;;;14.60;48.29;100743.50;4996443;28;20533;-59
2021/11/16 01:43:55;;;;;;;5.83;3.03;;;;;;;14.61;48.27;100743.19;5000295;28;20137;-60
2021/11/16 01:46:22;;;;;;;10.07;3.60;;;;;;;14.53;48.09;100728.97;5002404;28;20164;-60
2021/11/16 01:48:55;;;;;;;6.40;3.10;;;;;;;14.60;48.09;100746.31;4995701;28;20050;-61
2021/11/16 01:51:26;;;;;;;7.23;2.47;;;;;;;14.66;47.91;100747.88;4998071;28;20089;-61
2021/11/16 01:54:01;;;;;;;7.40;3.63;;;;;;;14.56;47.78;100728.38;5007818;28;20125;-60
2021/11/16 01:56:33;;;;;;;5.60;3.00;;;;;;;14.66;47.74;100740.28;5010017;28;20528;-60
2021/11/16 01:59:01;;;;;;;5.90;3.17;;;;;;;14.66;47.38;100739.47;5009020;28;20620;-61
2021/11/16 02:01:29;;;;;;;6.33;3.70;;;;;;;14.64;47.83;100745.41;5006664;28;20490;-61
2021/11/16 02:03:57;;;;;;;5.03;3.03;;;;;;;14.66;47.93;100756.31;5009021;28;20486;-60
2021/11/16 02:06:27;;;;;;;5.33;3.23;;;;;;;14.42;47.63;100722.63;5016218;28;20124;-60
2021/11/16 02:08:56;;;;;;;5.60;2.97;;;;;;;14.56;47.74;100751.69;5013268;28;20152;-60
2021/11/16 02:11:25;;;;;;;6.30;2.67;;;;;;;14.53;47.72;100748.63;5011538;28;20050;-60
2021/11/16 02:13:52;;;;;;;5.27;2.40;;;;;;;14.54;47.71;100758.75;4998150;28;20447;-60
2021/11/16 02:16:20;;;;;;;5.17;2.77;;;;;;;14.57;47.78;100752.53;5005908;28;20137;-59
2021/11/16 02:18:49;;;;;;;6.00;2.80;;;;;;;14.60;47.67;100752.78;4997414;28;20382;-59
2021/11/16 02:21:17;;;;;;;5.57;2.57;;;;;;;14.63;47.50;100759.72;5022035;28;20490;-61
2021/11/16 02:23:44;;;;;;;4.93;3.10;;;;;;;14.62;47.57;100758.06;5024759;28;20052;-61
2021/11/16 02:26:12;;;;;;;4.87;2.53;;;;;;;14.63;47.51;100760.59;5031834;28;20072;-61
2021/11/16 02:28:43;;;;;;;7.53;2.77;;;;;;;14.53;47.56;100743.00;5025485;28;23140;-60
2021/11/16 02:31:11;;;;;;;6.73;2.63;;;;;;;14.65;47.39;100765.91;5022083;28;20092;-61
2021/11/16 02:33:39;;;;;;;4.63;2.87;;;;;;;14.63;47.37;100756.94;5017740;28;20132;-61
2021/11/16 02:36:06;;;;;;;3.43;2.23;;;;;;;14.60;47.41;100771.63;5028958;28;20080;-62
2021/11/16 02:38:35;;;;;;;5.50;2.40;;;;;;;14.53;47.33;100765.50;5031224;28;20129;-60
2021/11/16 02:41:03;;;;;;;4.33;2.77;;;;;;;14.51;47.55;100764.97;5030284;28;20045;-59
2021/11/16 02:43:33;;;;;;;4.47;2.60;;;;;;;14.53;47.36;100762.69;5021799;28;20186;-60
2021/11/16 02:46:02;;;;;;;3.58;2.55;;;;;;;14.52;47.42;100755.41;5027519;28;20498;-59
2021/11/16 02:48:33;;;;;;;7.40;2.60;;;;;;;14.52;47.44;100759.03;5030782;28;20081;-59
2021/11/16 02:51:05;;;;;;;6.50;2.70;;;;;;;14.44;47.58;100762.50;5034662;28;20081;-60
2021/11/16 02:53:32;;;;;;;6.67;3.63;;;;;;;14.35;47.72;100762.31;5031423;28;20156;-59
2021/11/16 02:55:59;;;;;;;3.93;2.20;;;;;;;14.32;47.81;100767.72;5025731;28;20192;-58
2021/11/16 02:58:26;;;;;;;6.33;3.20;;;;;;;14.14;48.05;100756.13;5022813;28;20089;-58
2021/11/16 03:00:58;;;;;;;5.40;2.70;;;;;;;14.07;48.13;100761.28;5029763;28;20124;-60
2021/11/16 03:03:25;;;;;;;4.53;2.43;;;;;;;14.06;48.20;100758.78;5029885;28;20416;-60
2021/11/16 03:05:52;;;;;;;5.03;2.70;;;;;;;14.05;48.10;100759.91;5025863;28;20130;-61
2021/11/16 03:08:25;;;;;;;7.27;2.67;;;;;;;13.94;48.02;100731.94;5017570;28;20144;-60
2021/11/16 03:10:59;;;;;;;7.10;2.90;;;;;;;14.01;47.98;100739.19;5025810;28;20046;-60
2021/11/16 03:13:32;;;;;;;4.53;2.77;;;;;;;14.04;48.05;100749.81;5023944;28;20125;-59
2021/11/16 03:15:59;;;;;;;4.53;2.60;;;;;;;14.03;48.12;100750.94;5027492;28;20133;-60
2021/11/16 03:18:26;;;;;;;5.80;3.27;;;;;;;13.88;48.41;100735.09;5030496;28;20045;-59
2021/11/16 03:20:53;;;;;;;8.00;3.10;;;;;;;13.85;48.43;100753.41;5042705;28;20135;-59
2021/11/16 03:23:23;;;;;;;5.57;3.07;;;;;;;13.77;48.53;100744.78;5029308;28;20544;-59
2021/11/16 03:25:54;;;;;;;7.00;2.80;;;;;;;13.71;48.49;100736.44;5024076;28;20095;-59
2021/11/16 03:28:25;;;;;;;6.10;2.30;;;;;;;13.79;48.41;100740.56;5027140;28;20129;-59
2021/11/16 03:30:54;;;;;;;6.27;2.53;;;;;;;13.78;48.49;100744.50;5020992;28;20121;-60
2021/11/16 03:33:23;;;;;;;5.97;2.70;;;;;;;13.77;48.52;100740.00;5032098;28;20481;-59
2021/11/16 03:35:52;;;;;;;5.03;2.70;;;;;;;13.72;48.56;100734.47;5027485;28;20475;-58
2021/11/16 03:38:21;;;;;;;4.77;2.13;;;;;;;13.59;48.70;100721.97;5025849;28;20124;-59
2021/11/16 03:40:51;;;;;;;5.13;2.58;;;;;;;13.55;49.16;100725.66;5028329;28;20136;-60
2021/11/16 03:43:19;;;;;;;3.38;1.90;;;;;;;13.45;49.33;100721.81;5022159;28;20525;-60
2021/11/16 03:45:47;;;;;;;4.77;2.37;;;;;;;13.45;49.37;100727.44;5014025;28;20562;-60
2021/11/16 03:48:14;;;;;;;2.63;1.73;;;;;;;13.40;49.52;100721.03;5027323;28;20563;-62
2021/11/16 03:50:41;;;;;;;5.00;2.00;;;;;;;13.41;49.50;100715.13;5031009;28;20085;-64
2021/11/16 03:53:09;;;;;;;4.70;2.17;;;;;;;13.38;49.52;100707.31;5020052;28;20166;-62
2021/11/16 03:55:41;;;;;;;3.23;1.97;;;;;;;13.36;49.76;100706.75;5029135;28;20053;-61
2021/11/16 03:58:11;;;;;;;4.40;1.63;;;;;;;13.39;49.74;100705.34;5021954;28;20037;-61
2021/11/16 04:00:42;;;;;;;5.55;2.20;;;;;;;13.42;49.46;100705.56;5015138;28;20497;-60
2021/11/16 04:03:10;;;;;;;5.10;2.20;;;;;;;13.48;49.30;100701.59;5013206;28;20112;-60
2021/11/16 04:05:37;;;;;;;3.50;1.87;;;;;;;13.52;49.20;100707.44;5032600;28;20509;-60
2021/11/16 04:08:05;;;;;;;2.40;1.60;;;;;;;13.52;49.40;100704.63;5026764;28;20042;-59
2021/11/16 04:10:33;;;;;;;6.80;2.40;;;;;;;13.55;49.14;100708.81;5023113;28;20041;-59
2021/11/16 04:13:01;;;;;;;3.07;1.93;;;;;;;13.48;49.20;100698.78;5014966;28;20125;-60
2021/11/16 04:15:29;;;;;;;5.97;2.30;;;;;;;13.59;49.02;100709.91;5023246;28;20425;-59
2021/11/16 04:17:57;;;;;;;3.83;1.60;;;;;;;13.48;49.17;100693.19;5011474;28;20084;-60
2021/11/16 04:20:28;;;;;;;6.37;1.97;;;;;;;13.44;49.39;100697.72;5020510;28;20140;-60
2021/11/16 04:22:56;;;;;;;3.30;1.70;;;;;;;13.35;49.48;100696.69;5027915;28;20141;-61
2021/11/16 04:25:23;;;;;;;3.10;1.73;;;;;;;13.28;49.95;100713.00;5029519;28;20124;-63
2021/11/16 04:27:50;;;;;;;3.70;1.80;;;;;;;13.13;50.02;100688.72;5022258;28;20042;-64
2021/11/16 04:30:19;;;;;;;3.70;2.30;;;;;;;13.17;50.12;100705.81;5015720;28;20081;-64
2021/11/16 04:32:46;;;;;;;3.03;2.30;;;;;;;13.11;50.45;100706.97;5019351;28;20132;-64
2021/11/16 04:35:15;;;;;;;2.93;1.70;;;;;;;13.04;50.52;100707.31;5020629;28;20085;-64
2021/11/16 04:37:44;;;;;;;3.13;1.70;;;;;;;13.06;50.58;100710.66;5024596;28;20112;-64
2021/11/16 04:40:14;;;;;;;4.00;1.87;;;;;;;12.92;50.50;100687.22;5026087;28;20479;-60
2021/11/16 04:42:43;;;;;;;2.73;1.57;;;;;;;13.13;50.50;100716.78;5020099;28;20088;-60
2021/11/16 04:45:14;;;;;;;3.30;1.60;;;;;;;13.17;50.33;100717.00;5026755;28;20081;-60
2021/11/16 04:47:52;;;;;;;2.73;1.37;;;;;;;13.15;50.53;100710.84;5018893;28;20121;-61
2021/11/16 04:53:50;;;;;;;3.20;1.93;;;;;;;13.15;50.42;100705.25;5023082;28;20121;-61
2021/11/16 05:04:09;;;;;;;2.73;1.33;;;;;;;12.94;51.05;100727.84;5024982;28;20046;-61
2021/11/16 05:06:36;;;;;;;2.97;1.47;;;;;;;12.91;51.11;100722.81;5020755;28;20129;-61
2021/11/16 05:09:04;;;;;;;2.27;1.17;;;;;;;12.97;51.21;100720.81;5025498;28;20513;-61
2021/11/16 05:11:31;;;;;;;2.50;1.37;;;;;;;12.96;50.91;100714.38;5016412;28;20069;-61
2021/11/16 05:13:58;;;;;;;3.57;1.77;;;;;;;12.96;51.05;100720.00;5022941;28;20140;-60
2021/11/16 05:16:25;;;;;;;2.00;1.13;;;;;;;12.94;51.23;100718.59;5027369;28;20072;-61
2021/11/16 05:18:52;;;;;;;1.80;1.17;;;;;;;12.88;51.24;100706.59;5028057;28;20069;-61
2021/11/16 05:21:20;;;;;;;1.37;0.77;;;;;;;12.85;51.41;100718.38;5019266;28;20058;-60
2021/11/16 05:23:56;;;;;;;2.20;1.30;;;;;;;12.89;51.61;100719.50;5020642;28;20045;-61
2021/11/16 05:26:25;;;;;;;4.50;1.13;;;;;;;12.88;51.43;100716.97;5030177;28;20103;-61
2021/11/16 05:28:52;;;;;;;5.67;1.17;;;;;;;12.87;51.41;100721.75;5027288;28;20077;-60
2021/11/16 05:31:18;;;;;;;2.40;1.10;;;;;;;12.93;51.38;100737.41;5019879;28;20132;-59
2021/11/16 05:33:48;;;;;;;3.03;1.43;;;;;;;12.91;51.38;100725.63;5028363;28;20046;-59
2021/11/16 05:36:16;;;;;;;3.33;1.70;;;;;;;12.90;51.51;100731.53;5023073;28;20120;-58
2021/11/16 05:38:46;;;;;;;4.50;2.03;;;;;;;12.96;51.29;100736.81;5020087;28;20338;-59
2021/11/16 05:41:16;;;;;;;1.70;1.10;;;;;;;12.96;51.35;100719.16;5017883;28;20140;-61
2021/11/16 05:43:45;;;;;;;3.00;1.53;;;;;;;12.94;51.05;100708.22;5019601;28;20548;-61
2021/11/16 05:46:23;;;;;;;2.50;1.50;;;;;;;13.05;50.88;100729.44;5002526;28;20121;-59
2021/11/16 05:48:52;;;;;;;2.10;1.10;;;;;;;13.02;51.02;100724.44;5024963;28;20564;-58
2021/11/16 05:51:20;;;;;;;2.30;1.20;;;;;;;12.94;51.29;100725.03;5027391;28;20076;-59
2021/11/16 05:53:52;;;;;;;2.23;1.20;;;;;;;12.92;51.32;100732.94;5030023;28;20097;-59
2021/11/16 05:56:22;;;;;;;1.77;1.10;;;;;;;12.87;51.36;100732.94;5023332;28;20087;-58
2021/11/16 05:58:52;;;;;;;4.68;1.10;;;;;;;12.82;51.30;100724.59;5026538;28;20042;-61
2021/11/16 06:01:21;;;;;;;;;;;;;;;12.97;51.04;100735.69;5026871;28;20076;-58
2021/11/16 06:03:52;;;;;;;3.20;1.30;;;;;;;13.03;50.81;100731.72;5030963;28;20007;-59
2021/11/16 06:06:40;;;;;;;2.53;1.43;;;;;;;12.97;50.69;100732.88;5025179;28;20381;-59
2021/11/16 06:09:12;;;;;;;3.03;1.43;;;;;;;12.91;50.90;100745.25;5029998;28;20096;-59
2021/11/16 06:11:39;;;;;;;4.60;1.70;;;;;;;12.85;51.29;100762.38;5028867;28;20048;-60
2021/11/16 06:14:05;;;;;;;3.27;1.50;;;;;;;12.83;51.12;100754.28;5029443;28;20076;-58
2021/11/16 06:16:33;;;;;;;4.77;1.90;;;;;;;12.76;51.37;100749.00;5030935;28;20084;-57
2021/11/16 06:19:05;;;;;;;4.90;2.00;;;;;;;12.73;51.18;100754.34;5031969;28;20084;-58
2021/11/16 06:21:32;;;;;;;4.53;1.90;;;;;;;12.69;51.25;100756.06;5010287;28;20449;-60
2021/11/16 06:23:59;;;;;;;3.00;2.30;;;;;;;12.52;51.20;100740.47;4998589;28;20077;-61
2021/11/16 06:26:32;;;;;;;5.30;1.90;;;;;;;12.50;51.50;100751.13;4993219;28;20047;-61
2021/11/16 06:29:01;;;;;;;3.30;1.67;;;;;;;12.53;51.39;100769.31;5012733;28;20467;-59
2021/11/16 06:31:29;;;;;;;3.40;1.33;;;;;;;12.51;51.99;100768.75;5005318;28;20142;-59
2021/11/16 06:34:05;;;;;;;3.97;1.70;;;;;;;12.53;51.76;100761.75;5010384;28;20073;-60
2021/11/16 06:36:36;;;;;;;4.23;1.90;;;;;;;12.54;51.44;100768.19;5009432;28;20093;-58
2021/11/16 06:39:11;;;;;;;2.10;1.37;;;;;;;12.55;51.67;100779.09;5004780;28;20053;-58
2021/11/16 06:41:40;;;;;;;4.63;1.97;;;;;;;12.55;51.90;100781.91;5004782;28;20061;-57
2021/11/16 06:44:09;;;;;;;6.17;2.30;;;;;;;12.53;51.72;100772.94;5007364;28;20133;-58
2021/11/16 06:46:36;;;;;;;7.18;1.80;;;;;;;12.53;51.83;100784.16;5010540;28;20105;-60
2021/11/16 06:49:07;;;;;;;6.87;2.23;;;;;;;12.44;52.01;100780.28;5007471;28;20149;-60
2021/11/16 06:51:39;;;;;;;11.63;3.70;;;;;;;12.33;51.97;100761.84;5009360;28;20172;-58
2021/11/16 06:54:09;;;;;;;6.93;2.90;;;;;;;12.43;52.35;100792.59;5007475;28;20157;-57
2021/11/16 06:56:38;;;;;;;8.67;3.53;;;;;;;12.44;52.08;100788.66;5009374;28;20081;-54
2021/11/16 06:59:06;;;;;;;11.57;4.10;;;;;;;12.44;52.25;100788.66;5006107;28;20171;-53
2021/11/16 07:01:37;;;;;;;4.57;2.90;;;;;;;12.43;52.37;100801.00;5007066;28;20132;-53
2021/11/16 07:04:09;;;;;;;12.90;3.87;;;;;;;12.43;52.34;100801.00;5009794;28;20049;-54
2021/11/16 07:06:46;;;;;;;6.67;3.53;;;;;;;12.41;52.36;100813.63;5000796;28;20092;-53
2021/11/16 07:09:16;;;;;;;4.90;2.43;;;;;;;12.35;52.51;100810.00;5010771;28;20137;-56
2021/11/16 07:11:45;;;;;;;5.50;2.25;;;;;;;12.30;52.56;100812.81;5008399;28;20130;-57
2021/11/16 07:14:16;;;;;;;8.68;1.95;;;;;;;12.30;52.54;100819.25;5004888;28;20808;-56
2021/11/16 07:16:54;;;;;;;4.77;2.57;;;;;;;12.31;52.55;100823.75;5003427;28;20050;-55
2021/11/16 07:19:33;;;;;;;6.73;2.83;;;;;;;12.32;52.43;100811.41;4992438;28;20046;-55
2021/11/16 07:22:03;;;;;;;4.47;2.10;;;;;;;12.34;52.74;100813.91;4993627;28;20093;-54
2021/11/16 07:24:31;;;;;;;4.93;2.23;;;;;;;12.35;52.54;100807.22;5004600;28;20046;-56
2021/11/16 07:27:06;;;;;;;7.47;3.13;;;;;;;12.38;52.59;100814.22;5006948;28;21790;-57
2021/11/16 07:29:54;;;;;;;5.57;2.10;;;;;;;12.42;52.24;100818.13;5008664;28;20138;-56
2021/11/16 07:32:29;;;;;;;6.37;2.37;;;;;;;12.43;52.41;100812.22;5010031;28;20267;-55
2021/11/16 07:35:00;;;;;;;7.63;2.60;;;;;;;12.39;52.61;100811.13;5004423;28;20054;-54
2021/11/16 07:37:29;;;;;;;5.40;2.22;;;;;;;12.21;52.49;100786.56;5005517;28;20050;-55
2021/11/16 07:40:01;;;;;;;4.18;2.25;;;;;;;12.42;52.58;100818.13;5005338;28;20053;-56
2021/11/16 07:42:32;;;;;;;4.73;2.40;;;;;;;12.39;52.57;100827.91;5010344;28;20060;-55
2021/11/16 07:45:05;;;;;;;5.73;2.63;;;;;;;12.31;52.56;100826.56;5004003;28;20081;-54
2021/11/16 07:47:40;;;;;;;8.73;2.20;;;;;;;12.22;52.77;100822.66;5008315;28;20129;-56
2021/11/16 07:50:10;;;;;;;7.37;3.10;;;;;;;12.05;53.02;100817.38;5009232;28;20074;-55
2021/11/16 07:52:38;;;;;;;7.82;3.90;;;;;;;11.98;53.21;100825.25;5000510;28;20137;-56
2021/11/16 07:55:06;;;;;;;7.70;4.03;;;;;;;12.06;53.61;100813.47;4997923;28;20073;-54
2021/11/16 07:57:44;;;;;;;3.57;2.67;;;;;;;12.26;53.31;100817.31;4992550;28;20136;-55
2021/11/16 08:00:33;;;;;;;5.27;1.93;;;;;;;12.60;53.32;100805.41;5001742;28;20074;-55
2021/11/16 08:03:10;;;;;;;4.83;1.80;;;;;;;13.15;52.52;100817.41;4998166;28;20081;-54
2021/11/16 08:08:20;;;;;;;7.07;4.57;;;;;;;13.66;52.06;100822.63;5013885;28;20070;-56
2021/11/16 08:10:52;;;;;;;12.25;5.32;;;;;;;13.75;52.09;100818.06;4999332;28;20077;-55
2021/11/16 08:13:27;;;;;;;9.03;3.90;;;;;;;14.01;51.81;100829.03;5002126;28;20058;-56
2021/11/16 08:16:06;;;;;;;4.43;2.30;;;;;;;14.43;51.38;100831.09;4991240;28;20106;-55
2021/11/16 08:18:56;;;;;;;3.53;1.40;;;;;;;14.95;50.72;100837.72;5004096;28;20058;-55
2021/11/16 08:21:25;;;;;;;4.15;1.40;;;;;;;15.55;50.34;100840.72;5006729;28;20136;-56
2021/11/16 08:24:02;;;;;;;2.63;1.60;;;;;;;15.94;49.75;100825.44;5010882;28;20128;-55
2021/11/16 08:26:41;;;;;;;3.10;1.80;;;;;;;16.18;48.86;100836.53;5005602;28;20129;-55
2021/11/16 08:29:11;;;;;;;3.55;1.40;;;;;;;16.47;48.82;100841.03;4996121;28;20133;-56
2021/11/16 08:31:48;;;;;;;4.20;1.92;;;;;;;16.60;47.74;100848.66;5001195;28;20042;-56
2021/11/16 08:34:16;;;;;;;3.80;1.88;;;;;;;16.84;47.14;100856.91;5013166;28;20042;-55
2021/11/16 08:36:47;;;;;;;2.97;2.10;;;;;;;17.33;47.05;100843.09;5013446;28;20440;-57
2021/11/16 08:39:15;;;;;;;5.15;1.95;;;;;;;17.94;46.80;100855.72;5012705;28;20073;-56
2021/11/16 08:41:43;;;;;;;2.83;1.90;;;;;;;18.38;46.08;100851.13;5024295;28;20056;-55
2021/11/16 08:44:14;;;;;;;3.75;1.95;;;;;;;19.01;45.22;100863.16;5001527;28;20319;-55
2021/11/16 08:46:43;;;;;;;3.78;2.13;;;;;;;19.58;44.31;100857.38;5006343;28;20073;-55
2021/11/16 08:49:22;;;;;;;3.95;2.33;;;;;;;20.10;43.73;100869.53;5029140;28;20136;-55
2021/11/16 08:51:49;;;;;;;2.78;1.85;;;;;;;20.54;42.25;100875.88;5010631;28;20069;-56
2021/11/16 08:54:28;;;;;;;2.70;1.80;;;;;;;21.04;41.95;100875.13;5016292;28;20099;-54
2021/11/16 08:56:56;;;;;;;3.72;1.83;;;;;;;21.55;40.99;100875.13;5012238;28;20077;-57
2021/11/16 08:59:23;;;;;;;8.82;3.28;;;;;;;21.95;40.13;100889.66;4984246;28;20137;-56
2021/11/16 09:01:53;;;;;;;4.97;2.33;;;;;;;22.25;39.65;100889.53;5005324;28;20053;-56
2021/11/16 09:04:26;;;;;;;2.65;1.73;;;;;;;22.43;38.89;100876.78;5010263;28;20076;-55
2021/11/16 09:06:53;;;;;;;6.63;2.25;;;;;;;22.82;37.94;100893.53;5011309;28;20107;-56
2021/11/16 09:09:20;;;;;;;5.15;2.20;;;;;;;23.22;37.20;100887.97;5012079;28;20391;-54
2021/11/16 09:12:04;;;;;;;3.67;2.20;;;;;;;23.54;36.80;100874.72;5013921;28;20041;-56
2021/11/16 09:14:32;;;;;;;3.83;2.22;;;;;;;24.20;35.65;100887.63;5009573;28;20137;-55
2021/11/16 09:17:11;;;;;;;4.30;1.70;;;;;;;23.72;35.22;100891.56;5007203;28;20142;-54
2021/11/16 09:19:38;;;;;;;5.40;2.10;;;;;;;23.30;35.27;100881.28;5014126;28;20069;-56
2021/11/16 09:22:14;;;;;;;3.95;2.38;;;;;;;23.18;35.19;100892.72;5015617;28;20149;-55
2021/11/16 09:24:43;;;;;;;3.03;2.03;;;;;;;23.39;34.71;100901.94;5011621;28;20081;-55
2021/11/16 09:27:22;;;;;;;3.70;2.13;;;;;;;23.69;34.65;100897.97;5010626;28;20050;-53
2021/11/16 09:29:50;;;;;;;3.83;1.80;;;;;;;23.76;34.16;100887.63;5019279;28;20137;-55
2021/11/16 09:32:17;;;;;;;3.92;2.10;;;;;;;23.75;34.44;100891.66;5031433;28;20136;-55
2021/11/16 09:34:50;;;;;;;5.10;2.63;;;;;;;23.70;34.36;100886.22;5006400;28;20080;-54
2021/11/16 09:37:21;;;;;;;3.40;2.58;;;;;;;24.02;33.95;100894.88;5014341;28;20180;-55
2021/11/16 09:39:59;;;;;;;4.22;2.83;;;;;;;24.20;33.88;100901.91;5016453;28;20073;-55
2021/11/16 09:42:28;;;;;;;9.15;5.00;;;;;;;24.22;33.95;100902.38;5008961;28;20042;-56
2021/11/16 09:45:03;;;;;;;5.65;4.15;;;;;;;23.98;33.22;100894.78;5005026;28;20478;-55
2021/11/16 09:47:37;;;;;;;4.72;3.45;;;;;;;24.30;33.49;100907.09;5002131;28;20145;-52
2021/11/16 09:50:08;;;;;;;10.93;5.85;;;;;;;24.54;32.94;100911.84;5019382;28;20100;-57
2021/11/16 09:52:43;;;;;;;5.75;4.32;;;;;;;24.87;32.65;100895.56;5021403;28;20077;-58
2021/11/16 09:55:11;;;;;;;14.80;7.72;;;;;;;25.34;32.31;100921.25;5009402;28;20045;-56
2021/11/16 09:57:41;;;;;;;7.77;4.73;;;;;;;25.21;32.16;100911.94;5012749;28;20097;-56
2021/11/16 10:00:08;;;;;;;5.28;3.63;;;;;;;25.12;31.90;100919.88;5010069;28;20128;-56
2021/11/16 10:02:37;;;;;;;5.97;3.33;;;;;;;24.55;31.94;100898.44;5014172;28;20086;-56
2021/11/16 10:05:17;;;;;;;4.65;3.20;;;;;;;24.77;31.83;100902.66;5011089;28;20046;-57
2021/11/16 10:07:46;;;;;;;6.03;3.78;;;;;;;24.92;31.64;100893.22;5010383;28;20160;-57
2021/11/16 10:10:14;;;;;;;4.57;3.10;;;;;;;24.36;31.06;100877.09;5009201;28;20084;-55
2021/11/16 10:12:53;;;;;;;4.03;2.78;;;;;;;23.76;32.17;100876.22;5010203;28;20134;-55
2021/11/16 10:15:25;;;;;;;6.50;3.22;;;;;;;23.69;32.34;100881.69;5012324;28;20137;-55
2021/11/16 10:17:52;;;;;;;5.53;3.28;;;;;;;23.77;31.95;100882.75;5009558;28;20129;-53
2021/11/16 10:20:27;;;;;;;4.78;3.25;;;;;;;24.34;32.31;100888.06;5009659;28;20081;-57
2021/11/16 10:23:29;;;;;;;4.88;3.15;;;;;;;24.03;30.98;100890.81;5005384;28;20058;-53
2021/11/16 10:25:58;;;;;;;7.97;3.65;;;;;;;23.47;31.96;100885.06;5003844;28;21519;-53
2021/11/16 10:28:27;;;;;;;3.83;2.72;;;;;;;24.02;31.91;100886.31;5004182;28;20077;-53
2021/11/16 10:30:59;;;;;;;9.10;5.20;;;;;;;23.66;31.24;100899.50;5009836;28;20152;-52
2021/11/16 10:33:32;;;;;;;3.50;2.53;;;;;;;23.53;31.65;100881.59;5004570;28;20069;-52
2021/11/16 10:36:03;;;;;;;7.18;3.70;;;;;;;23.32;31.46;100876.09;5002243;28;20141;-59
2021/11/16 10:38:34;;;;;;;8.75;3.63;;;;;;;23.41;31.54;100885.31;5002400;28;20502;-58
2021/11/16 10:41:04;;;;;;;9.65;4.22;;;;;;;23.33;31.01;100891.97;5001633;28;20097;-60
2021/11/16 10:43:39;;;;;;;3.80;2.80;;;;;;;23.53;31.42;100889.34;5005178;28;20552;-60
2021/11/16 10:46:07;;;;;;;5.03;3.10;;;;;;;23.83;31.22;100884.16;5013726;28;20164;-59
2021/11/16 10:48:37;;;;;;;4.07;2.53;;;;;;;23.75;31.12;100900.22;5012275;28;20615;-60
2021/11/16 10:51:07;;;;;;;3.72;2.70;;;;;;;23.06;31.05;100881.34;5013258;28;20101;-59
2021/11/16 10:53:34;;;;;;;3.55;2.50;;;;;;;23.19;31.26;100885.84;5007518;28;20113;-58
2021/11/16 10:56:05;;;;;;;5.35;3.58;;;;;;;23.76;31.30;100879.06;5005710;28;20046;-58
2021/11/16 10:58:34;;;;;;;3.25;2.55;;;;;;;24.46;30.23;100880.63;5008389;28;20088;-59
2021/11/16 11:01:07;;;;;;;3.58;2.80;;;;;;;23.86;30.20;100874.84;5012420;28;20085;-56
2021/11/16 11:03:42;;;;;;;4.43;2.80;;;;;;;24.28;30.01;100875.25;5010929;28;20047;-60
2021/11/16 11:06:19;;;;;;;5.22;2.85;;;;;;;24.60;30.07;100858.16;5007625;28;20042;-60
2021/11/16 11:08:52;;;;;;;6.50;3.40;;;;;;;24.98;29.69;100868.06;5002880;28;20074;-59
2021/11/16 11:11:35;;;;;;;6.60;3.75;;;;;;;24.69;29.03;100861.66;5010016;28;20438;-61
2021/11/16 11:14:11;;;;;;;5.60;3.30;;;;;;;24.90;29.39;100843.41;5004162;28;20073;-59
2021/11/16 11:16:41;;;;;;;4.43;3.50;;;;;;;25.80;28.61;100854.84;5007182;28;20062;-55
2021/11/16 11:19:10;;;;;;;6.55;3.75;;;;;;;26.62;28.00;100831.50;5012328;28;20129;-59
2021/11/16 11:21:55;;;;;;;8.00;3.55;;;;;;;26.99;27.88;100833.72;4982712;28;20080;-56
2021/11/16 11:24:39;;;;;;;5.60;3.70;;;;;;;26.81;27.07;100796.19;5005626;28;20050;-56
2021/11/16 11:27:56;;;;;;;6.15;4.03;;;;;;;26.32;27.00;100807.59;5011914;28;20078;-54
2021/11/16 11:29:59;;;;;;;4.25;3.55;;;;;;;26.52;27.23;100812.09;5007121;28;20405;-54
2021/11/16 11:32:28;;;;;;;5.18;3.58;;;;;;;27.03;27.00;100816.56;5006877;28;20133;-55
2021/11/16 11:34:59;;;;;;;;;;;;;;;27.45;26.79;100813.50;4999216;28;20065;-56
2021/11/16 11:37:38;;;;;;;6.28;3.60;;;;;;;28.01;26.51;100803.16;4999603;28;19964;-55
2021/11/16 11:40:12;;;;;;;5.97;3.63;;;;;;;28.02;25.19;100817.09;5022019;28;20128;-55
2021/11/16 11:42:49;;;;;;;4.55;3.40;;;;;;;27.23;25.41;100800.09;5017663;28;20073;-57
2021/11/16 11:45:31;;;;;;;7.10;4.07;;;;;;;26.86;26.20;100793.00;5000297;28;20194;-55
2021/11/16 11:48:00;;;;;;;5.80;4.10;;;;;;;27.81;25.55;100793.91;5012138;28;20042;-55
2021/11/16 11:50:30;;;;;;;8.10;4.57;;;;;;;27.82;25.34;100786.94;5023610;28;20098;-55
2021/11/16 11:53:04;;;;;;;8.43;4.75;;;;;;;28.42;25.20;100794.56;4995518;28;20418;-53
2021/11/16 11:55:35;;;;;;;5.18;4.03;;;;;;;28.44;24.71;100787.16;5019888;28;20076;-54